Roundhead, Ohio
Current Conditions -  °F | °C
As of 12:53 PM on Monday 26 Jan 2015 (Local Time) from KAOH Reporting Station
Clear Clear  
Wind Chill:   Ceiling: Unl
Heat Index: 17°   Visibility: 10mi
Dew Point:   Wind: 7mph
Humidity: 71%   Direction: 350°N
Pressure: 29.89"   Gusts: NA
Location:  40.56°N, 83.84°W
Report Text: KAOH 261753Z AUTO 35006KT 10SM CLR M08/M13 A2989 RMK AO2 SLP137 60000 T10831128 11083 21100 58007
Loading
Personal Weather Stations






























Interactive Weather Map New forecast layout! Learn more

10-Day Weather Forecast

Advertisements
Track Severe Weather on mobile